KMLP - Mullan Pass
Updated: Wed, 24-Jan-2018 12:53am PST
Snow, freezing, fog, overcast
Snow, freezing, fog, overcast
 Wind from varies
Wind: varies at 7 mph , 11 km/h
Temperature : 27°F , -3°C
Wind Chill : 19°F , -7°C
Dew Point : 27°F , -3°C
Humidity : 100%
Barometer : 29.84 inHg , 1010.5 hPa
Summary : Snow, freezing, fog
Clouds : Overcast
Visibility : 1/2 mile , 2 km
2018/01/24 08:53 KMLP 240853Z AUTO VRB06KT 1/2SM SN FZFG VV002 M03/M03 A2984 RMK AO2 SLP140 P0006 60017 T10281033 58005 TSNO

 

KCOE - Coeur d Alene
Updated: Wed, 24-Jan-2018 12:56am PST
Light snow, mist, overcast
Light snow, mist, overcast
 Wind from S
Wind: S at 7 mph , 11 km/h
Temperature : 34°F , 1°C
Wind Chill : 28°F , -2°C
Dew Point : 32°F , 0°C
Humidity : 93%
Barometer : 29.91 inHg , 1012.9 hPa
Summary : Light snow, mist
Clouds : Overcast
Visibility : 6 miles , 10 km
2018/01/24 08:56 KCOE 240856Z AUTO 17006KT 6SM -SN BR OVC020 01/00 A2991 RMK AO2 SLP165 P0005 60014 T00060000 58012 FZRANO

 

KLWS - Lewiston
Updated: Wed, 24-Jan-2018 12:56am PST
Overcast
Overcast
 Wind from ESE
Wind: ESE at 6 mph , 9 km/h
Temperature : 41°F , 5°C
Wind Chill : 37°F , 3°C
Dew Point : 36°F , 2°C
Humidity : 81%
Barometer : 29.96 inHg , 1014.6 hPa
Clouds : Overcast
Visibility : 10 miles , 16 km
2018/01/24 08:56 KLWS 240856Z AUTO 11005KT 10SM OVC050 05/02 A2996 RMK AO2 SLP153 T00500022 58010

 

KGEG - Spokane Intl
Updated: Wed, 24-Jan-2018 12:53am PST
Light rain, overcast
Light rain, overcast
 Wind from SSE
Wind: SSE at 12 mph , 19 km/h
Temperature : 36°F , 2°C
Wind Chill : 28°F , -2°C
Dew Point : 36°F , 2°C
Humidity : 100%
Barometer : 29.87 inHg , 1011.5 hPa
Summary : Light rain
Clouds : Overcast
Visibility : 9 miles , 14 km
2018/01/24 08:53 KGEG 240853Z 15010KT 9SM -RA SCT008 BKN015 OVC022 02/02 A2987 RMK AO2 SLP129 P0005 60019 T00220017 58015